createdAt,value
2022-10-23T00:00:52.444Z,80.5
2022-10-23T00:06:36.423Z,80.4
2022-10-23T00:12:35.669Z,80.5
2022-10-23T00:18:33.284Z,80.7
2022-10-23T00:24:30.436Z,80.8
2022-10-23T00:30:41.463Z,80.7
2022-10-23T00:36:30.835Z,80.8
2022-10-23T00:42:30.282Z,80.7
2022-10-23T00:48:30.898Z,80.7
2022-10-23T00:54:30.485Z,80.8
2022-10-23T01:00:45.675Z,80.9
2022-10-23T01:06:30.268Z,81.1
2022-10-23T01:12:29.961Z,81.2
2022-10-23T01:18:29.909Z,81.4
2022-10-23T01:24:29.878Z,81.4
2022-10-23T01:30:30.147Z,81.1
2022-10-23T01:36:30.372Z,81
2022-10-23T01:42:30.159Z,80.9
2022-10-23T01:48:30.495Z,80.9
2022-10-23T01:54:31.387Z,81.4
2022-10-23T02:00:42.903Z,81.5
2022-10-23T02:06:30.289Z,81.4
2022-10-23T02:12:30.279Z,81.3
2022-10-23T02:18:29.983Z,81.6
2022-10-23T02:24:29.984Z,81.6
2022-10-23T02:30:33.388Z,82.3
2022-10-23T02:36:30.428Z,82.4
2022-10-23T02:42:30.065Z,82.3
2022-10-23T02:48:29.870Z,82.3
2022-10-23T02:54:29.922Z,82
2022-10-23T03:00:29.978Z,81.9
2022-10-23T03:06:30.604Z,81.6
2022-10-23T03:12:30.541Z,81.8
2022-10-23T03:18:30.195Z,81.7
2022-10-23T03:24:30.606Z,81.8
2022-10-23T03:30:41.085Z,81.9
2022-10-23T03:36:30.872Z,82.2
2022-10-23T03:42:30.250Z,81.9
2022-10-23T03:48:30.222Z,81.7
2022-10-23T03:54:30.231Z,81.4
2022-10-23T04:06:31.317Z,81.6
2022-10-23T04:12:30.846Z,81.7
2022-10-23T04:18:30.410Z,81.5
2022-10-23T04:24:30.338Z,81.6
2022-10-23T04:30:38.397Z,81.6
2022-10-23T04:36:30.585Z,81.4
2022-10-23T04:42:31.178Z,81.3
2022-10-23T04:48:30.650Z,81.4
2022-10-23T04:54:30.225Z,81.2
2022-10-23T05:00:44.806Z,81.5
2022-10-23T05:06:30.380Z,81.6
2022-10-23T05:12:30.674Z,81.6
2022-10-23T05:18:30.519Z,81.7
2022-10-23T05:24:30.725Z,81.8
2022-10-23T05:30:33.857Z,81.5
2022-10-23T05:36:30.518Z,81.5
2022-10-23T05:42:31.383Z,81.4
2022-10-23T05:48:34.750Z,81.4
2022-10-23T05:54:30.628Z,81.2
2022-10-23T06:00:39.972Z,81.2
2022-10-23T06:06:30.416Z,80.9
2022-10-23T06:12:30.705Z,80.7
2022-10-23T06:18:30.880Z,80.8
2022-10-23T06:24:30.884Z,80.9
2022-10-23T06:30:42.819Z,80.8
2022-10-23T06:36:30.964Z,80.6
2022-10-23T06:42:30.238Z,80.7
2022-10-23T06:48:30.437Z,80.4
2022-10-23T06:54:30.769Z,80.2
2022-10-23T07:00:46.650Z,80.5
2022-10-23T07:06:31.008Z,80.4
2022-10-23T07:12:30.284Z,80.3
2022-10-23T07:18:31.615Z,80.1
2022-10-23T07:24:30.350Z,80
2022-10-23T07:30:46.630Z,79.7
2022-10-23T07:36:30.991Z,79.1
2022-10-23T07:42:31.054Z,79.1
2022-10-23T07:48:30.289Z,79
2022-10-23T07:54:30.565Z,78.9
2022-10-23T08:00:43.078Z,78.8
2022-10-23T08:06:30.735Z,78.5
2022-10-23T08:12:30.482Z,78.6
2022-10-23T08:18:30.760Z,78.3
2022-10-23T08:24:30.487Z,78.6
2022-10-23T08:30:38.866Z,77.1
2022-10-23T08:36:32.134Z,77.5
2022-10-23T08:42:30.246Z,76.9
2022-10-23T08:48:30.046Z,77
2022-10-23T08:54:30.102Z,77
2022-10-23T09:00:38.383Z,76.7
2022-10-23T09:06:30.369Z,76.3
2022-10-23T09:12:29.978Z,75.7
2022-10-23T09:18:29.996Z,75.7
2022-10-23T09:24:30.153Z,75
2022-10-23T09:30:37.921Z,74
2022-10-23T09:36:30.237Z,73.5
2022-10-23T09:42:30.286Z,73.8
2022-10-23T09:48:30.986Z,73.6
2022-10-23T09:54:30.285Z,71.3
2022-10-23T10:00:35.134Z,70.5
2022-10-23T10:06:30.728Z,70.6
2022-10-23T10:12:30.890Z,70.1
2022-10-23T10:18:30.052Z,70.1
2022-10-23T10:24:30.085Z,70.5
2022-10-23T10:30:29.971Z,71.9
2022-10-23T10:36:30.048Z,73.6
2022-10-23T10:42:30.011Z,74.6
2022-10-23T10:48:30.124Z,74.1
2022-10-23T10:54:29.954Z,74.5
2022-10-23T11:00:49.201Z,73.1
2022-10-23T11:06:30.090Z,72.2
2022-10-23T11:12:31.793Z,72.2
2022-10-23T11:18:31.579Z,72.3
2022-10-23T11:24:30.039Z,73.1
2022-10-23T11:30:29.997Z,73.1
2022-10-23T11:36:30.038Z,73.1
2022-10-23T11:42:30.661Z,72.8
2022-10-23T11:48:30.115Z,72.3
2022-10-23T11:54:30.268Z,71.7
2022-10-23T12:00:42.566Z,70.6
2022-10-23T12:06:30.232Z,69.8
2022-10-23T12:12:30.797Z,69.8
2022-10-23T12:18:30.305Z,70.1
2022-10-23T12:24:30.948Z,70.6
2022-10-23T12:30:30.990Z,70.7
2022-10-23T12:36:30.091Z,70.4
2022-10-23T12:42:31.468Z,70.4
2022-10-23T12:48:30.312Z,68.7
2022-10-23T12:54:30.748Z,68.6
2022-10-23T13:00:59.235Z,67.3
2022-10-23T13:06:33.479Z,67.7
2022-10-23T13:12:31.036Z,68
2022-10-23T13:18:32.197Z,67.9
2022-10-23T13:24:32.007Z,67.7
2022-10-23T13:30:46.173Z,68
2022-10-23T13:36:30.711Z,68.1
2022-10-23T13:42:30.786Z,68.3
2022-10-23T13:48:30.444Z,67.6
2022-10-23T13:54:32.110Z,67.6
2022-10-23T14:01:00.167Z,68.6
2022-10-23T14:06:34.277Z,69.1
2022-10-23T14:12:32.840Z,69.3
2022-10-23T14:18:33.710Z,69.6
2022-10-23T14:24:32.316Z,69.3
2022-10-23T14:30:49.322Z,69.6
2022-10-23T14:36:43.128Z,69.7
2022-10-23T14:42:33.886Z,69.9
2022-10-23T14:48:30.823Z,70
2022-10-23T14:54:31.268Z,70.3
2022-10-23T15:00:54.965Z,70.6
2022-10-23T15:06:34.230Z,72.3
2022-10-23T15:12:31.454Z,72.9
2022-10-23T15:18:32.697Z,73.2
2022-10-23T15:24:31.148Z,73.4
2022-10-23T15:30:45.025Z,73.5
2022-10-23T15:36:31.033Z,73.3
2022-10-23T15:42:32.015Z,74.2
2022-10-23T15:48:31.918Z,74.6
2022-10-23T15:54:33.126Z,74.5
2022-10-23T16:00:54.765Z,74.6
2022-10-23T16:06:33.223Z,74.7
2022-10-23T16:12:32.662Z,75.3
2022-10-23T16:18:32.369Z,75.2
2022-10-23T16:24:31.049Z,75.6
2022-10-23T16:30:51.960Z,75.3
2022-10-23T16:36:32.860Z,75.4
2022-10-23T16:42:31.065Z,77.7
2022-10-23T16:48:31.084Z,77.9
2022-10-23T16:54:31.233Z,81.3
2022-10-23T17:00:53.793Z,82
2022-10-23T17:06:34.761Z,81.8
2022-10-23T17:12:32.328Z,82.5
2022-10-23T17:18:30.400Z,81.6
2022-10-23T17:24:31.863Z,82.3
2022-10-23T17:30:55.207Z,84.3
2022-10-23T17:36:32.921Z,84
2022-10-23T17:42:33.694Z,83.5
2022-10-23T17:48:32.590Z,83.4
2022-10-23T17:54:34.619Z,84.2
2022-10-23T18:00:49.992Z,84.3
2022-10-23T18:06:54.573Z,84.6
2022-10-23T18:12:37.882Z,84.5
2022-10-23T18:18:41.714Z,84.3
2022-10-23T18:24:44.399Z,82.5
2022-10-23T18:30:54.626Z,82.6
2022-10-23T18:37:06.189Z,82.7
2022-10-23T18:42:56.130Z,82.8
2022-10-23T18:48:47.785Z,82.8
2022-10-23T18:54:50.210Z,83.1
2022-10-23T19:01:00.133Z,83.1
2022-10-23T19:06:47.239Z,83
2022-10-23T19:12:52.622Z,82.9
2022-10-23T19:18:41.375Z,83
2022-10-23T19:24:31.662Z,83.2
2022-10-23T19:30:46.024Z,83.2
2022-10-23T19:36:35.247Z,84
2022-10-23T19:42:37.798Z,83.9
2022-10-23T19:48:33.342Z,83.9
2022-10-23T19:54:38.995Z,83.9
2022-10-23T20:00:50.740Z,84
2022-10-23T20:06:37.602Z,83.8
2022-10-23T20:12:31.420Z,83.9
2022-10-23T20:18:45.798Z,84.1
2022-10-23T20:24:35.923Z,84.3
2022-10-23T20:30:40.693Z,84.4
2022-10-23T20:36:30.535Z,84.5
2022-10-23T20:42:30.630Z,84.4
2022-10-23T20:48:30.886Z,84.3
2022-10-23T20:54:30.568Z,84.2
2022-10-23T21:06:40.984Z,83.9
2022-10-23T21:12:30.610Z,83.8
2022-10-23T21:18:45.433Z,83.8
2022-10-23T21:24:30.756Z,83.7
2022-10-23T21:30:47.288Z,83.6
2022-10-23T21:36:34.131Z,83.5
2022-10-23T21:42:30.811Z,83.3
2022-10-23T21:48:30.779Z,83.3
2022-10-23T21:54:31.317Z,83.3
2022-10-23T22:00:44.077Z,83.3
2022-10-23T22:06:30.503Z,83.2
2022-10-23T22:12:31.104Z,83.2
2022-10-23T22:18:31.112Z,83.1
2022-10-23T22:24:31.805Z,83
2022-10-23T22:30:47.102Z,83
2022-10-23T22:36:30.529Z,82.8
2022-10-23T22:42:30.959Z,82.7
2022-10-23T22:48:31.582Z,82.7
2022-10-23T22:54:30.585Z,82.6
2022-10-23T23:00:54.942Z,82.5
2022-10-23T23:06:30.454Z,82.5
2022-10-23T23:12:31.237Z,82.7
2022-10-23T23:18:31.665Z,82.6
2022-10-23T23:24:31.133Z,82.3
2022-10-23T23:30:47.905Z,82.2
2022-10-23T23:36:31.134Z,82.1
2022-10-23T23:42:32.585Z,82.1
2022-10-23T23:48:30.543Z,82
2022-10-23T23:54:31.282Z,82
